sensor_id;sensor_type;location;lat;lon;timestamp;temperature;humidity
26378;DHT22;14078;50.974;6.786;2023-06-10T00:02:17;19.60;99.90
26378;DHT22;14078;50.974;6.786;2023-06-10T00:04:45;19.60;99.90
26378;DHT22;14078;50.974;6.786;2023-06-10T00:07:13;19.70;99.90
26378;DHT22;14078;50.974;6.786;2023-06-10T00:09:39;19.60;99.90
26378;DHT22;14078;50.974;6.786;2023-06-10T00:12:08;19.50;1.00
26378;DHT22;14078;50.974;6.786;2023-06-10T00:14:39;19.40;1.00
26378;DHT22;14078;50.974;6.786;2023-06-10T00:17:06;19.40;99.90
26378;DHT22;14078;50.974;6.786;2023-06-10T00:19:35;19.30;99.90
26378;DHT22;14078;50.974;6.786;2023-06-10T00:22:03;19.30;1.00
26378;DHT22;14078;50.974;6.786;2023-06-10T00:24:30;19.20;99.90
26378;DHT22;14078;50.974;6.786;2023-06-10T00:26:57;19.20;99.90
26378;DHT22;14078;50.974;6.786;2023-06-10T00:29:23;19.20;1.00
26378;DHT22;14078;50.974;6.786;2023-06-10T00:31:50;19.20;99.90
26378;DHT22;14078;50.974;6.786;2023-06-10T00:34:19;19.10;1.00
26378;DHT22;14078;50.974;6.786;2023-06-10T00:36:46;19.10;99.90
26378;DHT22;14078;50.974;6.786;2023-06-10T00:39:14;19.00;99.90
26378;DHT22;14078;50.974;6.786;2023-06-10T00:41:40;18.90;99.90
26378;DHT22;14078;50.974;6.786;2023-06-10T00:44:07;18.70;99.90
26378;DHT22;14078;50.974;6.786;2023-06-10T00:46:34;18.80;99.90
26378;DHT22;14078;50.974;6.786;2023-06-10T00:49:01;18.90;99.90
26378;DHT22;14078;50.974;6.786;2023-06-10T00:51:27;18.80;99.90
26378;DHT22;14078;50.974;6.786;2023-06-10T00:53:54;18.90;99.90
26378;DHT22;14078;50.974;6.786;2023-06-10T00:56:23;18.90;1.00
26378;DHT22;14078;50.974;6.786;2023-06-10T00:58:50;18.90;99.90
26378;DHT22;14078;50.974;6.786;2023-06-10T01:01:17;19.00;1.00
26378;DHT22;14078;50.974;6.786;2023-06-10T01:03:45;18.90;99.90
26378;DHT22;14078;50.974;6.786;2023-06-10T01:06:19;18.80;1.00
26378;DHT22;14078;50.974;6.786;2023-06-10T01:08:54;18.70;1.00
26378;DHT22;14078;50.974;6.786;2023-06-10T01:11:29;18.60;1.00
26378;DHT22;14078;50.974;6.786;2023-06-10T01:14:00;18.70;1.00
26378;DHT22;14078;50.974;6.786;2023-06-10T01:16:27;18.60;1.00
26378;DHT22;14078;50.974;6.786;2023-06-10T01:18:54;18.50;99.90
26378;DHT22;14078;50.974;6.786;2023-06-10T01:21:22;18.60;99.90
26378;DHT22;14078;50.974;6.786;2023-06-10T01:23:50;18.50;1.00
26378;DHT22;14078;50.974;6.786;2023-06-10T01:26:18;18.40;1.00
26378;DHT22;14078;50.974;6.786;2023-06-10T01:28:50;18.30;99.90
26378;DHT22;14078;50.974;6.786;2023-06-10T01:31:27;18.20;1.00
26378;DHT22;14078;50.974;6.786;2023-06-10T01:34:00;18.10;1.00
26378;DHT22;14078;50.974;6.786;2023-06-10T01:36:29;18.30;99.90
26378;DHT22;14078;50.974;6.786;2023-06-10T01:38:59;18.20;99.90
26378;DHT22;14078;50.974;6.786;2023-06-10T01:41:26;18.20;1.00
26378;DHT22;14078;50.974;6.786;2023-06-10T01:43:54;18.00;1.00
26378;DHT22;14078;50.974;6.786;2023-06-10T01:46:21;18.00;1.00
26378;DHT22;14078;50.974;6.786;2023-06-10T01:48:48;18.00;1.00
26378;DHT22;14078;50.974;6.786;2023-06-10T01:51:15;17.90;1.00
26378;DHT22;14078;50.974;6.786;2023-06-10T01:53:43;17.90;1.00
26378;DHT22;14078;50.974;6.786;2023-06-10T01:56:09;17.90;1.00
26378;DHT22;14078;50.974;6.786;2023-06-10T01:58:42;17.80;1.00
26378;DHT22;14078;50.974;6.786;2023-06-10T02:01:09;17.80;1.00
26378;DHT22;14078;50.974;6.786;2023-06-10T02:03:35;18.00;1.00
26378;DHT22;14078;50.974;6.786;2023-06-10T02:06:02;18.00;1.00
26378;DHT22;14078;50.974;6.786;2023-06-10T02:08:29;18.00;1.00
26378;DHT22;14078;50.974;6.786;2023-06-10T02:10:57;17.90;99.90
26378;DHT22;14078;50.974;6.786;2023-06-10T02:13:23;17.90;99.90
26378;DHT22;14078;50.974;6.786;2023-06-10T02:15:50;17.90;99.90
26378;DHT22;14078;50.974;6.786;2023-06-10T02:18:19;17.90;99.90
26378;DHT22;14078;50.974;6.786;2023-06-10T02:20:46;17.90;99.90
26378;DHT22;14078;50.974;6.786;2023-06-10T02:23:12;17.90;99.90
26378;DHT22;14078;50.974;6.786;2023-06-10T02:25:39;17.80;1.00
26378;DHT22;14078;50.974;6.786;2023-06-10T02:28:07;17.80;1.00
26378;DHT22;14078;50.974;6.786;2023-06-10T02:30:34;17.80;1.00
26378;DHT22;14078;50.974;6.786;2023-06-10T02:33:01;17.90;99.90
26378;DHT22;14078;50.974;6.786;2023-06-10T02:35:28;18.00;99.90
26378;DHT22;14078;50.974;6.786;2023-06-10T02:37:54;17.90;99.90
26378;DHT22;14078;50.974;6.786;2023-06-10T02:40:21;17.80;99.90
26378;DHT22;14078;50.974;6.786;2023-06-10T02:42:47;17.70;1.00
26378;DHT22;14078;50.974;6.786;2023-06-10T02:45:16;17.50;1.00
26378;DHT22;14078;50.974;6.786;2023-06-10T02:47:42;17.40;1.00
26378;DHT22;14078;50.974;6.786;2023-06-10T02:50:09;17.40;1.00
26378;DHT22;14078;50.974;6.786;2023-06-10T02:52:36;17.40;1.00
26378;DHT22;14078;50.974;6.786;2023-06-10T02:55:03;17.60;1.00
26378;DHT22;14078;50.974;6.786;2023-06-10T02:57:29;17.80;1.00
26378;DHT22;14078;50.974;6.786;2023-06-10T02:59:56;17.70;1.00
26378;DHT22;14078;50.974;6.786;2023-06-10T03:02:25;17.80;1.00
26378;DHT22;14078;50.974;6.786;2023-06-10T03:04:54;17.70;1.00
26378;DHT22;14078;50.974;6.786;2023-06-10T03:07:20;17.70;1.00
26378;DHT22;14078;50.974;6.786;2023-06-10T03:09:48;17.60;1.00
26378;DHT22;14078;50.974;6.786;2023-06-10T03:12:15;17.60;1.00
26378;DHT22;14078;50.974;6.786;2023-06-10T03:14:41;17.50;1.00
26378;DHT22;14078;50.974;6.786;2023-06-10T03:17:08;17.30;1.00
26378;DHT22;14078;50.974;6.786;2023-06-10T03:19:36;17.30;1.00
26378;DHT22;14078;50.974;6.786;2023-06-10T03:22:08;17.20;1.00
26378;DHT22;14078;50.974;6.786;2023-06-10T03:24:35;17.20;1.00
26378;DHT22;14078;50.974;6.786;2023-06-10T03:27:06;17.20;1.00
26378;DHT22;14078;50.974;6.786;2023-06-10T03:29:32;17.20;1.00
26378;DHT22;14078;50.974;6.786;2023-06-10T03:31:59;17.10;1.00
26378;DHT22;14078;50.974;6.786;2023-06-10T03:34:26;17.30;1.00
26378;DHT22;14078;50.974;6.786;2023-06-10T03:36:54;17.50;1.00
26378;DHT22;14078;50.974;6.786;2023-06-10T03:39:21;17.50;99.90
26378;DHT22;14078;50.974;6.786;2023-06-10T03:41:48;17.50;99.90
26378;DHT22;14078;50.974;6.786;2023-06-10T03:44:15;17.50;99.90
26378;DHT22;14078;50.974;6.786;2023-06-10T03:46:42;17.50;99.90
26378;DHT22;14078;50.974;6.786;2023-06-10T03:49:08;17.40;99.90
26378;DHT22;14078;50.974;6.786;2023-06-10T03:51:35;17.30;99.90
26378;DHT22;14078;50.974;6.786;2023-06-10T03:54:04;17.30;1.00
26378;DHT22;14078;50.974;6.786;2023-06-10T03:56:31;17.30;1.00
26378;DHT22;14078;50.974;6.786;2023-06-10T03:58:58;17.30;1.00
26378;DHT22;14078;50.974;6.786;2023-06-10T04:01:25;17.20;1.00
26378;DHT22;14078;50.974;6.786;2023-06-10T04:03:53;17.10;1.00
26378;DHT22;14078;50.974;6.786;2023-06-10T04:06:19;17.00;1.00
26378;DHT22;14078;50.974;6.786;2023-06-10T04:08:48;17.00;15.00
26378;DHT22;14078;50.974;6.786;2023-06-10T04:11:16;17.10;1.00
26378;DHT22;14078;50.974;6.786;2023-06-10T04:13:42;17.10;1.00
26378;DHT22;14078;50.974;6.786;2023-06-10T04:16:09;17.20;14.30
26378;DHT22;14078;50.974;6.786;2023-06-10T04:18:36;17.30;24.90
26378;DHT22;14078;50.974;6.786;2023-06-10T04:21:02;17.70;1.00
26378;DHT22;14078;50.974;6.786;2023-06-10T04:23:29;18.10;1.00
26378;DHT22;14078;50.974;6.786;2023-06-10T04:25:56;18.20;1.00
26378;DHT22;14078;50.974;6.786;2023-06-10T04:28:24;18.30;1.00
26378;DHT22;14078;50.974;6.786;2023-06-10T04:30:50;18.30;1.00
26378;DHT22;14078;50.974;6.786;2023-06-10T04:33:17;18.20;1.00
26378;DHT22;14078;50.974;6.786;2023-06-10T04:35:44;18.20;1.00
26378;DHT22;14078;50.974;6.786;2023-06-10T04:38:13;18.10;1.00
26378;DHT22;14078;50.974;6.786;2023-06-10T04:40:39;18.10;1.00
26378;DHT22;14078;50.974;6.786;2023-06-10T04:43:06;18.20;14.90
26378;DHT22;14078;50.974;6.786;2023-06-10T04:45:34;18.20;35.60
26378;DHT22;14078;50.974;6.786;2023-06-10T04:48:01;18.10;42.50
26378;DHT22;14078;50.974;6.786;2023-06-10T04:50:28;18.10;37.20
26378;DHT22;14078;50.974;6.786;2023-06-10T04:52:55;18.10;47.50
26378;DHT22;14078;50.974;6.786;2023-06-10T04:55:22;18.10;47.20
26378;DHT22;14078;50.974;6.786;2023-06-10T04:57:49;18.10;26.80
26378;DHT22;14078;50.974;6.786;2023-06-10T05:00:17;18.20;32.40
26378;DHT22;14078;50.974;6.786;2023-06-10T05:02:45;18.20;13.00
26378;DHT22;14078;50.974;6.786;2023-06-10T05:05:15;18.30;11.10
26378;DHT22;14078;50.974;6.786;2023-06-10T05:07:41;18.30;8.50
26378;DHT22;14078;50.974;6.786;2023-06-10T05:10:09;18.50;1.00
26378;DHT22;14078;50.974;6.786;2023-06-10T05:12:37;18.60;1.00
26378;DHT22;14078;50.974;6.786;2023-06-10T05:15:05;18.70;1.00
26378;DHT22;14078;50.974;6.786;2023-06-10T05:17:32;18.80;1.00
26378;DHT22;14078;50.974;6.786;2023-06-10T05:20:01;18.80;1.00
26378;DHT22;14078;50.974;6.786;2023-06-10T05:22:28;19.00;1.00
26378;DHT22;14078;50.974;6.786;2023-06-10T05:24:55;19.00;1.00
26378;DHT22;14078;50.974;6.786;2023-06-10T05:27:22;19.10;1.00
26378;DHT22;14078;50.974;6.786;2023-06-10T05:29:49;19.20;1.00
26378;DHT22;14078;50.974;6.786;2023-06-10T05:32:17;19.20;1.00
26378;DHT22;14078;50.974;6.786;2023-06-10T05:34:43;19.20;1.00
26378;DHT22;14078;50.974;6.786;2023-06-10T05:37:12;19.30;1.00
26378;DHT22;14078;50.974;6.786;2023-06-10T05:39:39;19.40;1.00
26378;DHT22;14078;50.974;6.786;2023-06-10T05:42:07;19.50;1.00
26378;DHT22;14078;50.974;6.786;2023-06-10T05:44:34;19.60;1.00
26378;DHT22;14078;50.974;6.786;2023-06-10T05:47:01;19.60;1.00
26378;DHT22;14078;50.974;6.786;2023-06-10T05:49:28;19.70;99.90
26378;DHT22;14078;50.974;6.786;2023-06-10T05:51:54;19.90;99.90
26378;DHT22;14078;50.974;6.786;2023-06-10T05:54:25;19.90;39.60
26378;DHT22;14078;50.974;6.786;2023-06-10T05:56:52;20.00;1.00
26378;DHT22;14078;50.974;6.786;2023-06-10T05:59:18;20.20;29.70
26378;DHT22;14078;50.974;6.786;2023-06-10T06:01:45;20.30;32.10
26378;DHT22;14078;50.974;6.786;2023-06-10T06:04:12;20.40;1.00
26378;DHT22;14078;50.974;6.786;2023-06-10T06:06:39;20.50;1.00
26378;DHT22;14078;50.974;6.786;2023-06-10T06:09:06;20.60;1.00
26378;DHT22;14078;50.974;6.786;2023-06-10T06:11:34;20.80;99.90
26378;DHT22;14078;50.974;6.786;2023-06-10T06:14:01;20.90;99.90
26378;DHT22;14078;50.974;6.786;2023-06-10T06:16:28;21.00;1.00
26378;DHT22;14078;50.974;6.786;2023-06-10T06:18:54;21.10;1.00
26378;DHT22;14078;50.974;6.786;2023-06-10T06:21:21;21.20;61.40
26378;DHT22;14078;50.974;6.786;2023-06-10T06:23:48;21.30;99.90
26378;DHT22;14078;50.974;6.786;2023-06-10T06:26:14;21.40;97.20
26378;DHT22;14078;50.974;6.786;2023-06-10T06:28:42;21.60;1.00
26378;DHT22;14078;50.974;6.786;2023-06-10T06:31:09;21.70;1.00
26378;DHT22;14078;50.974;6.786;2023-06-10T06:33:36;21.80;1.00
26378;DHT22;14078;50.974;6.786;2023-06-10T06:36:03;21.90;99.90
26378;DHT22;14078;50.974;6.786;2023-06-10T06:38:29;22.00;93.50
26378;DHT22;14078;50.974;6.786;2023-06-10T06:40:56;22.10;45.10
26378;DHT22;14078;50.974;6.786;2023-06-10T06:43:28;22.10;1.00
26378;DHT22;14078;50.974;6.786;2023-06-10T06:45:56;22.20;99.90
26378;DHT22;14078;50.974;6.786;2023-06-10T06:48:23;22.30;1.00
26378;DHT22;14078;50.974;6.786;2023-06-10T06:50:49;22.40;1.00
26378;DHT22;14078;50.974;6.786;2023-06-10T06:53:16;22.50;1.00
26378;DHT22;14078;50.974;6.786;2023-06-10T06:55:42;22.60;1.00
26378;DHT22;14078;50.974;6.786;2023-06-10T06:58:09;22.70;1.00
26378;DHT22;14078;50.974;6.786;2023-06-10T07:00:36;22.70;1.00
26378;DHT22;14078;50.974;6.786;2023-06-10T07:03:04;22.80;1.00
26378;DHT22;14078;50.974;6.786;2023-06-10T07:05:30;23.00;1.00
26378;DHT22;14078;50.974;6.786;2023-06-10T07:07:57;23.10;1.00
26378;DHT22;14078;50.974;6.786;2023-06-10T07:10:24;23.20;1.00
26378;DHT22;14078;50.974;6.786;2023-06-10T07:12:51;23.30;1.00
26378;DHT22;14078;50.974;6.786;2023-06-10T07:15:18;23.40;1.00
26378;DHT22;14078;50.974;6.786;2023-06-10T07:17:45;23.40;1.00
26378;DHT22;14078;50.974;6.786;2023-06-10T07:20:13;23.50;1.00
26378;DHT22;14078;50.974;6.786;2023-06-10T07:22:41;23.60;1.00
26378;DHT22;14078;50.974;6.786;2023-06-10T07:25:08;23.70;1.00
26378;DHT22;14078;50.974;6.786;2023-06-10T07:27:35;23.70;1.00
26378;DHT22;14078;50.974;6.786;2023-06-10T07:30:02;23.80;1.00
26378;DHT22;14078;50.974;6.786;2023-06-10T07:32:30;23.90;1.00
26378;DHT22;14078;50.974;6.786;2023-06-10T07:34:56;23.90;1.00
26378;DHT22;14078;50.974;6.786;2023-06-10T07:37:25;24.00;35.80
26378;DHT22;14078;50.974;6.786;2023-06-10T07:39:51;24.10;48.10
26378;DHT22;14078;50.974;6.786;2023-06-10T07:42:18;24.10;86.00
26378;DHT22;14078;50.974;6.786;2023-06-10T07:44:45;24.30;99.90
26378;DHT22;14078;50.974;6.786;2023-06-10T07:47:11;24.30;99.90
26378;DHT22;14078;50.974;6.786;2023-06-10T07:49:38;24.30;99.90
26378;DHT22;14078;50.974;6.786;2023-06-10T07:52:07;24.30;99.90
26378;DHT22;14078;50.974;6.786;2023-06-10T07:54:35;24.40;99.90
26378;DHT22;14078;50.974;6.786;2023-06-10T07:57:02;24.50;99.90
26378;DHT22;14078;50.974;6.786;2023-06-10T07:59:28;24.50;99.90
26378;DHT22;14078;50.974;6.786;2023-06-10T08:01:55;24.60;99.90
26378;DHT22;14078;50.974;6.786;2023-06-10T08:04:22;24.60;99.90
26378;DHT22;14078;50.974;6.786;2023-06-10T08:06:48;24.70;99.90
26378;DHT22;14078;50.974;6.786;2023-06-10T08:09:15;24.80;99.90
26378;DHT22;14078;50.974;6.786;2023-06-10T08:11:46;24.90;99.90
26378;DHT22;14078;50.974;6.786;2023-06-10T08:14:13;24.90;99.90
26378;DHT22;14078;50.974;6.786;2023-06-10T08:16:39;25.00;99.90
26378;DHT22;14078;50.974;6.786;2023-06-10T08:19:06;25.10;99.90
26378;DHT22;14078;50.974;6.786;2023-06-10T08:21:34;25.20;99.90
26378;DHT22;14078;50.974;6.786;2023-06-10T08:24:02;25.20;99.90
26378;DHT22;14078;50.974;6.786;2023-06-10T08:26:28;25.20;99.90
26378;DHT22;14078;50.974;6.786;2023-06-10T08:28:56;25.40;99.90
26378;DHT22;14078;50.974;6.786;2023-06-10T08:31:23;25.30;99.90
26378;DHT22;14078;50.974;6.786;2023-06-10T08:33:50;25.40;99.90
26378;DHT22;14078;50.974;6.786;2023-06-10T08:36:16;25.50;99.90
26378;DHT22;14078;50.974;6.786;2023-06-10T08:38:43;25.50;99.90
26378;DHT22;14078;50.974;6.786;2023-06-10T08:41:12;25.60;99.90
26378;DHT22;14078;50.974;6.786;2023-06-10T08:43:44;25.60;99.90
26378;DHT22;14078;50.974;6.786;2023-06-10T08:46:14;25.70;99.90
26378;DHT22;14078;50.974;6.786;2023-06-10T08:48:43;25.70;99.90
26378;DHT22;14078;50.974;6.786;2023-06-10T08:51:11;25.80;99.90
26378;DHT22;14078;50.974;6.786;2023-06-10T08:53:41;25.80;99.90
26378;DHT22;14078;50.974;6.786;2023-06-10T08:56:11;25.80;99.90
26378;DHT22;14078;50.974;6.786;2023-06-10T08:58:39;25.90;99.90
26378;DHT22;14078;50.974;6.786;2023-06-10T09:01:07;26.00;99.90
26378;DHT22;14078;50.974;6.786;2023-06-10T09:03:36;26.10;99.90
26378;DHT22;14078;50.974;6.786;2023-06-10T09:06:05;26.00;99.90
26378;DHT22;14078;50.974;6.786;2023-06-10T09:08:33;26.20;99.90
26378;DHT22;14078;50.974;6.786;2023-06-10T09:11:00;26.30;99.90
26378;DHT22;14078;50.974;6.786;2023-06-10T09:13:26;26.20;99.90
26378;DHT22;14078;50.974;6.786;2023-06-10T09:15:53;26.20;99.90
26378;DHT22;14078;50.974;6.786;2023-06-10T09:18:21;26.30;99.90
26378;DHT22;14078;50.974;6.786;2023-06-10T09:20:49;26.40;99.90
26378;DHT22;14078;50.974;6.786;2023-06-10T09:23:16;26.40;99.90
26378;DHT22;14078;50.974;6.786;2023-06-10T09:25:43;26.50;99.90
26378;DHT22;14078;50.974;6.786;2023-06-10T09:28:13;26.60;99.90
26378;DHT22;14078;50.974;6.786;2023-06-10T09:30:40;26.70;99.90
26378;DHT22;14078;50.974;6.786;2023-06-10T09:33:10;26.70;99.90
26378;DHT22;14078;50.974;6.786;2023-06-10T09:35:45;26.70;99.90
26378;DHT22;14078;50.974;6.786;2023-06-10T09:38:14;26.80;99.90
26378;DHT22;14078;50.974;6.786;2023-06-10T09:40:49;26.80;99.90
26378;DHT22;14078;50.974;6.786;2023-06-10T09:43:16;27.00;99.90
26378;DHT22;14078;50.974;6.786;2023-06-10T09:45:43;27.00;99.90
26378;DHT22;14078;50.974;6.786;2023-06-10T09:48:10;27.10;99.90
26378;DHT22;14078;50.974;6.786;2023-06-10T09:50:41;27.20;99.90
26378;DHT22;14078;50.974;6.786;2023-06-10T09:53:08;27.20;99.90
26378;DHT22;14078;50.974;6.786;2023-06-10T09:55:37;27.30;99.90
26378;DHT22;14078;50.974;6.786;2023-06-10T09:58:04;27.30;99.90
26378;DHT22;14078;50.974;6.786;2023-06-10T10:00:32;27.40;99.90
26378;DHT22;14078;50.974;6.786;2023-06-10T10:02:59;27.50;99.90
26378;DHT22;14078;50.974;6.786;2023-06-10T10:05:27;27.60;99.90
26378;DHT22;14078;50.974;6.786;2023-06-10T10:07:55;27.60;99.90
26378;DHT22;14078;50.974;6.786;2023-06-10T10:10:22;27.70;99.90
26378;DHT22;14078;50.974;6.786;2023-06-10T10:12:54;27.70;99.90
26378;DHT22;14078;50.974;6.786;2023-06-10T10:15:24;27.70;99.90
26378;DHT22;14078;50.974;6.786;2023-06-10T10:17:53;27.80;99.90
26378;DHT22;14078;50.974;6.786;2023-06-10T10:20:24;27.80;99.90
26378;DHT22;14078;50.974;6.786;2023-06-10T10:22:52;27.90;99.90
26378;DHT22;14078;50.974;6.786;2023-06-10T10:25:24;28.00;99.90
26378;DHT22;14078;50.974;6.786;2023-06-10T10:27:57;28.10;99.90
26378;DHT22;14078;50.974;6.786;2023-06-10T10:30:25;28.10;99.90
26378;DHT22;14078;50.974;6.786;2023-06-10T10:33:04;28.20;99.90
26378;DHT22;14078;50.974;6.786;2023-06-10T10:35:33;28.30;99.90
26378;DHT22;14078;50.974;6.786;2023-06-10T10:38:01;28.30;99.90
26378;DHT22;14078;50.974;6.786;2023-06-10T10:40:32;28.50;99.90
26378;DHT22;14078;50.974;6.786;2023-06-10T10:43:01;28.60;99.90
26378;DHT22;14078;50.974;6.786;2023-06-10T10:45:28;28.60;99.90
26378;DHT22;14078;50.974;6.786;2023-06-10T10:47:55;28.70;57.50
26378;DHT22;14078;50.974;6.786;2023-06-10T10:50:23;28.80;1.00
26378;DHT22;14078;50.974;6.786;2023-06-10T10:52:54;28.80;1.00
26378;DHT22;14078;50.974;6.786;2023-06-10T10:55:22;28.90;1.00
26378;DHT22;14078;50.974;6.786;2023-06-10T10:57:54;29.10;1.00
26378;DHT22;14078;50.974;6.786;2023-06-10T11:00:27;29.20;1.00
26378;DHT22;14078;50.974;6.786;2023-06-10T11:02:58;29.30;1.00
26378;DHT22;14078;50.974;6.786;2023-06-10T11:05:35;29.40;99.90
26378;DHT22;14078;50.974;6.786;2023-06-10T11:08:03;29.50;99.90
26378;DHT22;14078;50.974;6.786;2023-06-10T11:10:30;29.60;99.90
26378;DHT22;14078;50.974;6.786;2023-06-10T11:12:57;29.60;99.90
26378;DHT22;14078;50.974;6.786;2023-06-10T11:15:27;29.80;99.90
26378;DHT22;14078;50.974;6.786;2023-06-10T11:18:07;29.70;99.90
26378;DHT22;14078;50.974;6.786;2023-06-10T11:20:45;29.50;99.90
26378;DHT22;14078;50.974;6.786;2023-06-10T11:23:40;29.30;99.90
26378;DHT22;14078;50.974;6.786;2023-06-10T11:26:11;29.10;99.90
26378;DHT22;14078;50.974;6.786;2023-06-10T11:28:38;28.90;99.90
26378;DHT22;14078;50.974;6.786;2023-06-10T11:31:06;28.60;99.90
26378;DHT22;14078;50.974;6.786;2023-06-10T11:33:33;28.40;99.90
26378;DHT22;14078;50.974;6.786;2023-06-10T11:36:00;28.30;86.50
26378;DHT22;14078;50.974;6.786;2023-06-10T11:38:28;28.10;86.00
26378;DHT22;14078;50.974;6.786;2023-06-10T11:40:55;28.00;75.60
26378;DHT22;14078;50.974;6.786;2023-06-10T11:43:22;28.10;68.30
26378;DHT22;14078;50.974;6.786;2023-06-10T11:45:54;28.30;66.20
26378;DHT22;14078;50.974;6.786;2023-06-10T11:48:22;28.30;66.00
26378;DHT22;14078;50.974;6.786;2023-06-10T11:50:48;28.30;69.40
26378;DHT22;14078;50.974;6.786;2023-06-10T11:53:15;28.20;69.90
26378;DHT22;14078;50.974;6.786;2023-06-10T11:55:44;28.10;72.10
26378;DHT22;14078;50.974;6.786;2023-06-10T11:58:14;28.00;70.20
26378;DHT22;14078;50.974;6.786;2023-06-10T12:00:45;28.00;67.10
26378;DHT22;14078;50.974;6.786;2023-06-10T12:03:12;27.90;66.30
26378;DHT22;14078;50.974;6.786;2023-06-10T12:05:40;27.90;63.40
26378;DHT22;14078;50.974;6.786;2023-06-10T12:08:10;27.80;60.40
26378;DHT22;14078;50.974;6.786;2023-06-10T12:10:41;27.80;64.30
26378;DHT22;14078;50.974;6.786;2023-06-10T12:13:08;27.90;65.60
26378;DHT22;14078;50.974;6.786;2023-06-10T12:15:35;27.80;99.90
26378;DHT22;14078;50.974;6.786;2023-06-10T12:18:02;27.90;1.00
26378;DHT22;14078;50.974;6.786;2023-06-10T12:20:31;28.00;1.00
26378;DHT22;14078;50.974;6.786;2023-06-10T12:23:00;28.00;1.00
26378;DHT22;14078;50.974;6.786;2023-06-10T12:25:28;28.20;1.00
26378;DHT22;14078;50.974;6.786;2023-06-10T12:27:56;28.30;1.00
26378;DHT22;14078;50.974;6.786;2023-06-10T12:30:25;28.20;99.90
26378;DHT22;14078;50.974;6.786;2023-06-10T12:32:52;28.10;99.90
26378;DHT22;14078;50.974;6.786;2023-06-10T12:35:21;28.00;49.40
26378;DHT22;14078;50.974;6.786;2023-06-10T12:37:57;28.00;1.00
26378;DHT22;14078;50.974;6.786;2023-06-10T12:40:30;28.00;1.00
26378;DHT22;14078;50.974;6.786;2023-06-10T12:42:57;28.00;1.00
26378;DHT22;14078;50.974;6.786;2023-06-10T12:45:27;28.20;1.00
26378;DHT22;14078;50.974;6.786;2023-06-10T12:48:04;28.40;1.00
26378;DHT22;14078;50.974;6.786;2023-06-10T12:50:31;28.50;1.00
26378;DHT22;14078;50.974;6.786;2023-06-10T12:52:58;28.70;99.90
26378;DHT22;14078;50.974;6.786;2023-06-10T12:55:25;28.80;99.90
26378;DHT22;14078;50.974;6.786;2023-06-10T12:57:53;28.90;99.90
26378;DHT22;14078;50.974;6.786;2023-06-10T13:00:20;29.00;99.90
26378;DHT22;14078;50.974;6.786;2023-06-10T13:02:48;29.10;99.90
26378;DHT22;14078;50.974;6.786;2023-06-10T13:05:16;29.30;99.90
26378;DHT22;14078;50.974;6.786;2023-06-10T13:07:43;29.30;99.90
26378;DHT22;14078;50.974;6.786;2023-06-10T13:10:10;29.10;99.90
26378;DHT22;14078;50.974;6.786;2023-06-10T13:12:37;28.80;99.90
26378;DHT22;14078;50.974;6.786;2023-06-10T13:15:06;28.90;99.90
26378;DHT22;14078;50.974;6.786;2023-06-10T13:17:33;28.80;99.90
26378;DHT22;14078;50.974;6.786;2023-06-10T13:20:01;28.80;99.90
26378;DHT22;14078;50.974;6.786;2023-06-10T13:22:30;28.60;99.90
26378;DHT22;14078;50.974;6.786;2023-06-10T13:24:58;28.60;99.90
26378;DHT22;14078;50.974;6.786;2023-06-10T13:27:24;28.60;99.90
26378;DHT22;14078;50.974;6.786;2023-06-10T13:29:52;28.90;99.90
26378;DHT22;14078;50.974;6.786;2023-06-10T13:32:20;29.30;99.90
26378;DHT22;14078;50.974;6.786;2023-06-10T13:34:47;29.50;99.90
26378;DHT22;14078;50.974;6.786;2023-06-10T13:37:14;29.80;99.90
26378;DHT22;14078;50.974;6.786;2023-06-10T13:39:42;29.90;99.90
26378;DHT22;14078;50.974;6.786;2023-06-10T13:42:09;30.00;99.90
26378;DHT22;14078;50.974;6.786;2023-06-10T13:44:36;30.10;99.90
26378;DHT22;14078;50.974;6.786;2023-06-10T13:47:03;30.10;99.90
26378;DHT22;14078;50.974;6.786;2023-06-10T13:49:31;30.10;99.90
26378;DHT22;14078;50.974;6.786;2023-06-10T13:51:58;30.20;99.90
26378;DHT22;14078;50.974;6.786;2023-06-10T13:54:24;30.10;99.90
26378;DHT22;14078;50.974;6.786;2023-06-10T13:56:52;30.10;99.90
26378;DHT22;14078;50.974;6.786;2023-06-10T13:59:19;29.90;99.90
26378;DHT22;14078;50.974;6.786;2023-06-10T14:01:46;30.00;99.90
26378;DHT22;14078;50.974;6.786;2023-06-10T14:04:13;30.20;99.90
26378;DHT22;14078;50.974;6.786;2023-06-10T14:06:41;30.20;99.90
26378;DHT22;14078;50.974;6.786;2023-06-10T14:09:07;30.40;99.90
26378;DHT22;14078;50.974;6.786;2023-06-10T14:11:34;30.50;99.90
26378;DHT22;14078;50.974;6.786;2023-06-10T14:14:01;30.80;99.90
26378;DHT22;14078;50.974;6.786;2023-06-10T14:16:28;30.90;99.90
26378;DHT22;14078;50.974;6.786;2023-06-10T14:18:54;31.10;99.90
26378;DHT22;14078;50.974;6.786;2023-06-10T14:21:21;31.20;99.90
26378;DHT22;14078;50.974;6.786;2023-06-10T14:23:49;31.40;99.90
26378;DHT22;14078;50.974;6.786;2023-06-10T14:26:18;31.10;1.00
26378;DHT22;14078;50.974;6.786;2023-06-10T14:28:44;30.90;99.90
26378;DHT22;14078;50.974;6.786;2023-06-10T14:31:11;31.20;99.90
26378;DHT22;14078;50.974;6.786;2023-06-10T14:33:38;31.70;99.90
26378;DHT22;14078;50.974;6.786;2023-06-10T14:36:05;32.30;1.00
26378;DHT22;14078;50.974;6.786;2023-06-10T14:38:31;32.50;42.60
26378;DHT22;14078;50.974;6.786;2023-06-10T14:41:00;32.80;58.80
26378;DHT22;14078;50.974;6.786;2023-06-10T14:43:26;32.80;56.60
26378;DHT22;14078;50.974;6.786;2023-06-10T14:45:53;33.00;59.00
26378;DHT22;14078;50.974;6.786;2023-06-10T14:48:21;33.20;61.00
26378;DHT22;14078;50.974;6.786;2023-06-10T14:50:48;33.30;47.30
26378;DHT22;14078;50.974;6.786;2023-06-10T14:53:16;33.30;1.00
26378;DHT22;14078;50.974;6.786;2023-06-10T14:55:43;33.20;99.90
26378;DHT22;14078;50.974;6.786;2023-06-10T14:58:11;33.10;99.90
26378;DHT22;14078;50.974;6.786;2023-06-10T15:00:37;32.80;99.90
26378;DHT22;14078;50.974;6.786;2023-06-10T15:03:04;32.30;99.90
26378;DHT22;14078;50.974;6.786;2023-06-10T15:05:31;31.90;99.90
26378;DHT22;14078;50.974;6.786;2023-06-10T15:07:58;31.80;99.90
26378;DHT22;14078;50.974;6.786;2023-06-10T15:10:25;31.40;99.90
26378;DHT22;14078;50.974;6.786;2023-06-10T15:12:52;31.50;99.90
26378;DHT22;14078;50.974;6.786;2023-06-10T15:15:22;31.40;99.90
26378;DHT22;14078;50.974;6.786;2023-06-10T15:17:49;31.10;99.90
26378;DHT22;14078;50.974;6.786;2023-06-10T15:20:16;30.80;99.90
26378;DHT22;14078;50.974;6.786;2023-06-10T15:22:42;31.10;99.90
26378;DHT22;14078;50.974;6.786;2023-06-10T15:25:09;31.30;99.90
26378;DHT22;14078;50.974;6.786;2023-06-10T15:27:36;31.60;99.90
26378;DHT22;14078;50.974;6.786;2023-06-10T15:30:03;31.50;99.90
26378;DHT22;14078;50.974;6.786;2023-06-10T15:32:32;31.40;99.90
26378;DHT22;14078;50.974;6.786;2023-06-10T15:34:58;31.00;99.90
26378;DHT22;14078;50.974;6.786;2023-06-10T15:37:25;30.80;99.90
26378;DHT22;14078;50.974;6.786;2023-06-10T15:39:52;30.40;1.00
26378;DHT22;14078;50.974;6.786;2023-06-10T15:42:18;30.00;1.00